Flight Track Log - Related Links

Times and Time Zones

All times are in EDT time to prevent confusion due to time zone crossing. See the ASQ45T flight status page for this flight to view local times or setup timezone preferences in your user account.

Time Position Orientation Groundspeed Altitude Reporting Facility
EDT Latitude Longitude Course Direction KTS MPH feet Rate Location/Type
Sun 10:23:32 PM 41.9667 -87.8500 72° East 186 214 2,400  Level Chicago TRACON
Sun 10:25:25 PM 42.0011 -87.7056 72° East 262 302 6,000 1,886 Climbing Chicago Center
Sun 10:26:27 PM 42.0286 -87.6053 70° East 287 330 7,900 2,098 Climbing Chicago Center
Sun 10:27:28 PM 42.0497 -87.4714 78° East 300 345 10,300 1,805 Climbing Chicago Center
Sun 10:28:30 PM 42.0686 -87.3500 78° East 323 372 11,600 1,317 Climbing Chicago Center
Sun 10:29:31 PM 42.0878 -87.2169 79° East 357 411 13,000 1,268 Climbing Chicago Center
Sun 10:30:33 PM 42.1092 -87.0808 78° East 368 423 14,200 1,210 Climbing Chicago Center
Sun 10:31:35 PM 42.1167 -86.9372 86° East 383 441 15,500 1,268 Climbing Chicago Center
Sun 10:32:36 PM 42.1225 -86.7933 87° East 387 445 16,800 1,415 Climbing Chicago Center
Sun 10:33:38 PM 42.1278 -86.6294 87° East 399 459 18,400 1,415 Climbing Chicago Center
Sun 10:34:39 PM 42.1331 -86.4792 87° East 402 463 19,700 1,220 Climbing Chicago Center
Sun 10:35:41 PM 42.1386 -86.3242 87° East 412 474 20,900 1,161 Climbing Chicago Center
Sun 10:36:43 PM 42.1428 -86.1678 88° East 417 480 22,100 1,171 Climbing Chicago Center
Sun 10:37:44 PM 42.1442 -86.0103 89° East 419 482 23,300 1,268 Climbing Chicago Center
Sun 10:38:46 PM 42.1417 -85.8375 91° East 415 478 24,700 1,366 Climbing Chicago Center
Sun 10:39:47 PM 42.1403 -85.6831 91° East 416 479 26,100 1,268 Climbing Chicago Center
Sun 10:40:49 PM 42.1389 -85.5292 91° East 415 478 27,300 1,171 Climbing Chicago Center
Sun 10:41:50 PM 42.1367 -85.3747 91° East 413 475 28,500 1,187 Climbing Chicago Center
Sun 10:42:20 PM 42.1386 -85.2911 88° East 417 480 29,100 1,200 Climbing Cleveland Center
Sun 10:43:20 PM 42.1364 -85.1367 91° East 417 480 30,300 1,200 Climbing Cleveland Center
Sun 10:44:20 PM 42.1342 -84.9825 91° East 412 474 31,500 1,100 Climbing Cleveland Center
Sun 10:45:20 PM 42.1317 -84.8283 91° East 412 474 32,500 1,000 Climbing Cleveland Center
Sun 10:46:20 PM 42.1292 -84.6656 91° East 417 480 33,500 1,000 Climbing Cleveland Center
Sun 10:47:20 PM 42.1264 -84.5086 91° East 422 486 34,500 750 Climbing Cleveland Center
Sun 10:48:20 PM 42.1386 -84.3272 85° East 422 486 35,000 250 Climbing Cleveland Center
Sun 10:49:20 PM 42.1567 -84.1547 82° East 443 510 35,000  Level Cleveland Center
Sun 10:50:20 PM 42.1767 -83.9764 81° East 466 536 35,000  Level Cleveland Center
Sun 10:51:20 PM 42.1839 -83.7947 87° East 479 551 35,000  Level Cleveland Center
Sun 10:52:20 PM 42.1867 -83.6208 89° East 474 545 35,000  Level Cleveland Center
Sun 10:53:20 PM 42.1908 -83.4586 88° East 467 537 35,000  Level Cleveland Center
Sun 10:54:20 PM 42.1972 -83.2794 87° East 467 537 35,000  Level Cleveland Center
Sun 10:55:20 PM 42.2097 -83.0894 85° East 467 537 35,000  Level Cleveland Center
Sun 10:56:20 PM 42.2236 -82.9272 83° East 477 549 35,000  Level Cleveland Center
Sun 10:57:20 PM 42.2356 -82.7511 85° East 477 549 35,000  Level Cleveland Center
Sun 10:58:20 PM 42.2492 -82.5664 84° East 477 549 35,000  Level Cleveland Center
Sun 10:59:20 PM 42.2625 -82.3872 84° East 477 549 35,000  Level Cleveland Center
Sun 11:00:20 PM 42.2778 -82.2081 83° East 477 549 35,000  Level Cleveland Center
Sun 11:01:20 PM 42.2928 -82.0119 84° East 477 549 35,000  Level Cleveland Center
Sun 11:02:20 PM 42.3053 -81.8494 84° East 477 549 35,000  Level Cleveland Center
Sun 11:03:20 PM 42.3175 -81.6728 85° East 477 549 35,000  Level Cleveland Center
Sun 11:04:20 PM 42.3272 -81.4986 86° East 472 543 35,000  Level Cleveland Center
Sun 11:05:20 PM 42.3389 -81.3247 85° East 465 535 35,000  Level Cleveland Center
Sun 11:06:20 PM 42.3506 -81.1506 85° East 465 535 35,000  Level Cleveland Center
Sun 11:07:20 PM 42.3617 -80.9542 86° East 470 541 35,000  Level Cleveland Center
Sun 11:08:20 PM 42.3747 -80.7714 84° East 477 549 35,000  Level Cleveland Center
Sun 11:09:20 PM 42.3853 -80.5917 85° East 477 549 35,000  Level Cleveland Center
Sun 11:10:20 PM 42.3956 -80.4117 86° East 477 549 35,000  Level Cleveland Center
Sun 11:11:20 PM 42.4033 -80.2289 87° East 483 556 35,000  Level Cleveland Center
Sun 11:12:20 PM 42.4153 -80.0461 85° East 478 550 35,000  Level Cleveland Center
Sun 11:13:20 PM 42.4247 -79.8658 86° East 478 550 35,000  Level Cleveland Center
Sun 11:14:20 PM 42.4317 -79.6831 87° East 478 550 35,000  Level Cleveland Center
Sun 11:15:20 PM 42.4406 -79.5000 86° East 478 550 35,000  Level Cleveland Center
Sun 11:16:20 PM 42.4492 -79.3169 86° East 478 550 35,000  Level Cleveland Center
Sun 11:17:20 PM 42.4617 -79.1339 85° East 483 556 35,000  Level Cleveland Center
Sun 11:18:20 PM 42.4694 -78.9478 87° East 483 556 35,000  Level Cleveland Center
Sun 11:19:20 PM 42.4772 -78.7647 87° East 483 556 35,000  Level Cleveland Center
Sun 11:20:20 PM 42.4825 -78.5786 88° East 483 556 35,000  Level Cleveland Center
Sun 11:21:20 PM 42.4917 -78.3953 86° East 483 556 35,000  Level Cleveland Center
Sun 11:22:20 PM 42.4983 -78.2119 87° East 483 556 35,000  Level Cleveland Center
Sun 11:23:20 PM 42.5028 -78.0286 88° East 483 556 35,000  Level Cleveland Center
Sun 11:24:20 PM 42.5114 -77.8508 86° East 477 549 35,000  Level Cleveland Center
Sun 11:25:20 PM 42.5153 -77.6706 88° East 477 549 35,000  Level Cleveland Center
Sun 11:26:20 PM 42.5228 -77.4869 87° East 482 555 35,000  Level Cleveland Center
Sun 11:28:49 PM 42.5342 -77.0450 88° East 495 570 35,000  Level Boston Center
Sun 11:29:49 PM 42.5394 -76.8619 88° East 490 564 35,000  Level Boston Center
Sun 11:30:49 PM 42.5444 -76.6792 88° East 485 558 35,000  Level Boston Center
Sun 11:31:49 PM 42.5425 -76.5014 91° East 480 552 35,000 -250 Level Boston Center
Sun 11:32:49 PM 42.5319 -76.3231 95° East 473 544 34,500 -1,000 Descending Boston Center
Sun 11:33:49 PM 42.5233 -76.1450 94° East 473 544 33,000 -1,450 Descending Boston Center
Sun 11:34:49 PM 42.5083 -75.9639 96° East 479 551 31,600 -1,450 Descending Boston Center
Sun 11:35:49 PM 42.4969 -75.7914 95° East 479 551 30,100 -1,450 Descending Boston Center
Sun 11:36:49 PM 42.4833 -75.6131 96° East 474 545 28,700 -1,450 Descending Boston Center
Sun 11:37:49 PM 42.4692 -75.4350 96° East 469 540 27,200 -1,450 Descending Boston Center
Sun 11:38:49 PM 42.4550 -75.2542 96° East 469 540 25,800 -1,450 Descending Boston Center
Sun 11:39:49 PM 42.4428 -75.0792 95° East 474 545 24,300 -1,450 Descending Boston Center
Sun 11:40:49 PM 42.4300 -74.9069 96° East 474 545 22,900 -1,450 Descending Boston Center
Sun 11:41:49 PM 42.4167 -74.7350 96° East 463 533 21,400 -1,450 Descending Boston Center
Sun 11:42:49 PM 42.4014 -74.5656 97° East 458 527 20,000 -1,500 Descending Boston Center
Sun 11:43:49 PM 42.3878 -74.3853 96° East 444 511 18,400 -1,000 Descending Boston Center
Sun 11:44:49 PM 42.3778 -74.2417 95° East 435 501 18,000 -200 Descending Boston Center
Sun 11:45:49 PM 42.3636 -74.0669 96° East 428 493 18,000  Level Boston Center
Sun 11:46:49 PM 42.3492 -73.9206 98° East 428 493 18,000  Level Boston Center
Sun 11:47:32 PM 42.3383 -73.7883 96° East 437 503 18,000  Level Boston Center
Sun 11:47:49 PM 42.3344 -73.7461 97° East 428 493 18,000 -500 Level Boston Center
Sun 11:48:08 PM 42.3308 -73.7039 97° East 427 491 17,700 -1,000 Descending Boston Center
Sun 11:48:49 PM 42.3236 -73.6111 96° East 423 487 17,000 -1,574 Descending Boston Center
Sun 11:49:09 PM 42.3139 -73.5378 100° East 417 480 16,100 -2,400 Descending Boston Center
Sun 11:49:49 PM 42.3083 -73.4564 95° East 418 481 14,600 -2,400 Descending Boston Center
Sun 11:50:09 PM 42.3006 -73.3833 98° East 412 474 13,700 -2,200 Descending Boston Center
Sun 11:50:49 PM 42.2950 -73.2933 95° East 406 467 12,400 -1,869 Descending Boston Center
Sun 11:51:10 PM 42.2872 -73.2428 102° East 385 443 11,800 -1,300 Descending Boston Center
Sun 11:51:49 PM 42.2814 -73.1725 96° East 378 435 11,100 -1,279 Descending Boston Center
Sun 11:52:11 PM 42.2586 -73.1272 124° Southeast 332 382 10,500 -1,421 Descending Boston Center
Sun 11:53:05 PM 42.2258 -73.0400 117° Southeast 294 338 9,300 -1,409 Descending Boston Center
Sun 11:54:06 PM 42.2033 -72.9361 106° East 283 326 7,800 -1,426 Descending Boston Center
Sun 11:55:07 PM 42.1808 -72.8378 107° East 279 321 6,400 -1,461 Descending Boston Center
Sun 11:56:01 PM 42.1686 -72.7481 100° East 258 297 5,000 -1,541 Descending Boston Center
Sun 11:56:56 PM 42.1522 -72.6642 105° East 253 291 3,600 -1,252 Descending Boston Center
Sun 11:57:56 PM 42.1106 -72.5969 130° Southeast 227 261 2,600 -496 Descending Boston Center
Sun 11:58:57 PM 42.0669 -72.5772 161° South 182 209 2,600 -98 Level Boston Center
Sun 11:59:58 PM 42.0231 -72.5853 188° South 161 185 2,400 -545 Descending Boston Center
Mon 12:00:58 AM 41.9897 -72.6189 217° Southwest 151 174 1,500 -793 Descending Boston Center
Mon 12:01:59 AM 41.9647 -72.6550 227° Southwest 128 147 800 -689 Descending Boston Center

Login

Don't have an account? Register now (free) for customized features, flight alerts, and more!